Time;durP1;ratioP1;P1;durP2;ratioP2;P2;SDS_P1;SDS_P2;PMS_P1;PMS_P2;Temp;Humidity;BMP_temperature;BMP_pressure;BME280_temperature;BME280_humidity;BME280_pressure;Samples;Min_cycle;Max_cycle;Signal;HPM_P1;HPM_P2
2020/12/24 00:01:04;;;;;;;3.47;1.10;;;;;;;8.77;72.23;100075.25;4970348;28;20462;-89
2020/12/24 00:03:30;;;;;;;2.33;1.25;;;;;;;8.84;72.27;100076.53;4972817;28;20114;-89
2020/12/24 00:05:55;;;;;;;2.42;1.15;;;;;;;8.53;72.15;100079.38;4971770;28;20051;-89
2020/12/24 00:08:21;;;;;;;6.07;1.48;;;;;;;8.88;71.13;100091.91;4971506;28;20043;-89
2020/12/24 00:10:50;;;;;;;2.55;1.10;;;;;;;9.04;71.33;100109.25;4972618;28;20429;-89
2020/12/24 00:13:16;;;;;;;3.80;1.17;;;;;;;8.85;70.79;100112.25;4964914;28;20039;-89
2020/12/24 00:15:43;;;;;;;4.47;1.13;;;;;;;8.40;72.11;100106.41;4972638;28;20545;-89
2020/12/24 00:18:09;;;;;;;2.40;1.15;;;;;;;8.85;72.18;100135.81;4972696;28;20030;-89
2020/12/24 00:20:34;;;;;;;2.97;1.05;;;;;;;8.95;71.49;100131.66;4971961;28;20085;-90
2020/12/24 00:22:59;;;;;;;4.63;1.40;;;;;;;8.74;72.47;100139.13;4970832;28;20089;-90
2020/12/24 00:25:25;;;;;;;2.72;1.63;;;;;;;8.91;71.48;100140.66;4972151;28;20022;-90
2020/12/24 00:27:50;;;;;;;2.95;1.80;;;;;;;8.87;72.24;100162.75;4972695;28;20070;-90
2020/12/24 00:30:15;;;;;;;3.08;1.50;;;;;;;8.74;72.42;100144.34;4971242;28;20605;-89
2020/12/24 00:32:41;;;;;;;6.15;1.70;;;;;;;8.98;71.84;100162.03;4970624;28;20093;-89
2020/12/24 00:35:06;;;;;;;4.78;1.70;;;;;;;9.01;72.31;100174.94;4972539;28;20037;-89
2020/12/24 00:37:32;;;;;;;2.33;1.45;;;;;;;9.12;70.69;100175.91;4972594;28;20038;-89
2020/12/24 00:39:57;;;;;;;3.13;1.60;;;;;;;9.01;72.02;100181.00;4987688;28;20022;-89
2020/12/24 00:42:22;;;;;;;4.40;1.63;;;;;;;9.22;71.14;100185.78;4972579;28;20057;-89
2020/12/24 00:44:48;;;;;;;3.13;1.58;;;;;;;9.07;71.35;100193.69;4971125;28;20030;-89
2020/12/24 00:47:13;;;;;;;4.43;1.48;;;;;;;9.11;71.48;100213.50;4972545;28;20035;-89
2020/12/24 00:49:38;;;;;;;4.05;1.55;;;;;;;8.81;72.58;100215.50;4969503;28;20316;-89
2020/12/24 00:52:04;;;;;;;2.92;1.90;;;;;;;8.85;71.64;100230.06;4972012;28;20027;-90
2020/12/24 00:54:29;;;;;;;7.10;2.53;;;;;;;8.92;72.74;100240.03;4972383;28;20042;-89
2020/12/24 00:56:55;;;;;;;4.07;2.35;;;;;;;8.81;71.21;100254.78;4971158;28;20029;-90
2020/12/24 00:59:20;;;;;;;8.60;1.83;;;;;;;8.91;71.81;100275.03;4973025;28;20035;-89
2020/12/24 01:01:45;;;;;;;6.28;2.20;;;;;;;9.03;71.83;100276.03;4975526;28;20504;-89
2020/12/24 01:04:11;;;;;;;4.68;2.13;;;;;;;9.10;72.05;100290.44;4976034;28;20432;-89
2020/12/24 01:06:36;;;;;;;2.55;2.35;;;;;;;9.23;70.91;100284.41;5006816;28;20045;-89
2020/12/24 01:09:02;;;;;;;3.60;2.33;;;;;;;8.85;72.52;100290.28;5007142;28;20030;-89
2020/12/24 01:11:29;;;;;;;5.60;2.38;;;;;;;8.91;72.44;100298.59;5007312;28;20030;-89
2020/12/24 01:13:55;;;;;;;3.55;2.35;;;;;;;9.29;71.21;100304.97;4976139;28;20150;-89
2020/12/24 01:16:20;;;;;;;6.15;2.67;;;;;;;9.16;71.18;100299.66;4975411;28;20092;-89
2020/12/24 01:18:46;;;;;;;4.00;2.50;;;;;;;9.18;70.47;100317.88;4974476;28;20117;-89
2020/12/24 01:21:12;;;;;;;2.88;2.45;;;;;;;9.06;71.69;100304.66;4974138;28;20015;-89
2020/12/24 01:23:37;;;;;;;3.65;2.90;;;;;;;9.02;71.82;100318.03;4974425;28;20485;-89
2020/12/24 01:26:02;;;;;;;3.72;3.10;;;;;;;8.97;72.74;100323.56;4974437;28;20262;-89
2020/12/24 01:28:28;;;;;;;6.88;3.25;;;;;;;9.13;72.09;100332.13;4975873;28;20023;-89
2020/12/24 01:30:53;;;;;;;6.28;3.72;;;;;;;8.95;72.47;100324.59;4974361;28;20105;-89
2020/12/24 01:33:18;;;;;;;3.88;2.85;;;;;;;9.09;72.44;100327.19;4975381;28;20182;-89
2020/12/24 01:35:44;;;;;;;5.68;3.40;;;;;;;9.16;71.46;100323.22;4975484;28;20059;-89
2020/12/24 01:38:09;;;;;;;7.93;3.85;;;;;;;9.25;71.42;100332.28;4975382;28;20030;-89
2020/12/24 01:40:34;;;;;;;6.97;3.58;;;;;;;8.99;72.25;100337.41;4975818;28;20063;-89
2020/12/24 01:43:00;;;;;;;5.15;3.08;;;;;;;9.12;71.71;100325.22;4975378;28;20029;-89
2020/12/24 01:45:25;;;;;;;6.82;3.35;;;;;;;8.91;73.47;100371.06;4973505;28;20034;-89
2020/12/24 01:47:50;;;;;;;5.30;3.28;;;;;;;8.97;72.08;100360.22;4974633;28;20030;-89
2020/12/24 01:50:16;;;;;;;6.28;3.25;;;;;;;9.22;71.99;100363.91;5005840;28;20031;-89
2020/12/24 01:52:41;;;;;;;6.00;3.85;;;;;;;8.83;71.92;100371.53;4974909;28;20109;-88
2020/12/24 01:55:09;;;;;;;5.07;3.25;;;;;;;9.06;71.85;100383.22;4975175;28;20026;-89
2020/12/24 01:57:37;;;;;;;4.68;2.72;;;;;;;9.21;71.08;100393.69;4975130;28;20031;-89
2020/12/24 02:00:05;;;;;;;2.92;2.30;;;;;;;9.01;72.12;100387.06;4973422;28;20126;-89
2020/12/24 02:02:30;;;;;;;4.13;2.70;;;;;;;9.06;72.07;100385.84;5006008;28;20037;-89
2020/12/24 02:04:55;;;;;;;4.60;2.42;;;;;;;9.20;71.16;100402.47;4973628;28;20030;-89
2020/12/24 02:07:21;;;;;;;3.30;2.10;;;;;;;9.28;71.07;100392.34;4975049;28;20027;-89
2020/12/24 02:09:48;;;;;;;3.28;2.50;;;;;;;8.96;72.47;100404.81;4974624;28;20027;-89
2020/12/24 02:12:15;;;;;;;6.05;2.45;;;;;;;9.06;71.40;100406.81;4974816;28;20085;-88
2020/12/24 02:14:41;;;;;;;5.53;2.53;;;;;;;9.00;72.18;100420.25;4974524;28;20042;-89
2020/12/24 02:17:06;;;;;;;3.75;2.72;;;;;;;8.95;72.04;100440.66;4974555;28;20105;-89
2020/12/24 02:19:32;;;;;;;4.30;2.30;;;;;;;9.00;71.88;100450.84;4975059;28;20458;-89
2020/12/24 02:21:58;;;;;;;4.18;2.50;;;;;;;9.07;71.01;100460.84;4972996;28;20054;-88
2020/12/24 02:24:23;;;;;;;4.95;2.45;;;;;;;9.00;71.91;100470.00;4974491;28;20082;-89
2020/12/24 02:26:48;;;;;;;6.68;1.90;;;;;;;9.31;70.66;100483.88;4974218;28;20073;-89
2020/12/24 02:29:14;;;;;;;5.32;2.08;;;;;;;9.15;71.33;100498.84;5005899;28;20118;-89
2020/12/24 02:31:39;;;;;;;4.03;2.03;;;;;;;9.31;70.25;100503.03;4974468;28;20504;-88
2020/12/24 02:34:04;;;;;;;5.40;1.92;;;;;;;9.37;70.36;100519.34;4974555;28;20019;-89
2020/12/24 02:36:30;;;;;;;3.75;2.22;;;;;;;9.12;71.48;100521.69;4974342;28;20030;-89
2020/12/24 02:38:55;;;;;;;4.57;2.25;;;;;;;9.08;71.79;100533.28;4974226;28;20106;-89
2020/12/24 02:41:20;;;;;;;5.05;2.25;;;;;;;8.98;71.87;100536.50;4974306;28;20296;-88
2020/12/24 02:43:48;;;;;;;1.50;1.40;;;;;;;9.28;71.14;100542.56;4973925;28;20466;-89
2020/12/24 02:46:13;;;;;;;3.85;1.77;;;;;;;9.25;71.16;100547.13;4972839;28;20397;-88
2020/12/24 02:48:39;;;;;;;4.60;1.77;;;;;;;8.92;71.78;100533.31;4973966;28;20484;-89
2020/12/24 02:51:04;;;;;;;1.85;1.50;;;;;;;9.21;70.63;100549.09;4973986;28;20035;-89
2020/12/24 02:53:30;;;;;;;7.00;1.52;;;;;;;9.50;70.43;100556.97;4973565;28;20381;-88
2020/12/24 02:55:55;;;;;;;3.85;1.77;;;;;;;9.42;70.22;100554.81;4973582;28;20034;-88
2020/12/24 02:58:21;;;;;;;3.95;1.77;;;;;;;9.48;69.67;100559.69;4973658;28;20033;-89
2020/12/24 03:00:47;;;;;;;3.53;1.60;;;;;;;9.10;69.95;100554.97;4973625;28;20054;-89
2020/12/24 03:03:12;;;;;;;4.13;1.52;;;;;;;9.39;69.77;100562.84;4973443;28;20461;-88
2020/12/24 03:05:38;;;;;;;7.65;1.63;;;;;;;9.60;69.29;100573.00;4972189;28;20478;-89
2020/12/24 03:08:03;;;;;;;1.85;1.60;;;;;;;9.21;70.52;100572.66;4973785;28;20037;-89
2020/12/24 03:10:28;;;;;;;5.97;1.88;;;;;;;9.21;71.01;100575.28;4988647;28;20497;-89
2020/12/24 03:12:54;;;;;;;4.50;1.70;;;;;;;9.42;69.96;100583.66;4973537;28;20086;-89
2020/12/24 03:15:19;;;;;;;1.20;1.15;;;;;;;9.20;70.84;100601.56;4973818;28;20050;-89
2020/12/24 03:17:44;;;;;;;2.63;1.40;;;;;;;9.42;69.70;100606.38;4988623;28;20035;-88
2020/12/24 03:20:10;;;;;;;3.60;1.23;;;;;;;9.29;70.90;100612.34;4988034;28;20130;-89
2020/12/24 03:22:37;;;;;;;5.07;1.52;;;;;;;9.30;70.15;100614.06;4988058;28;20473;-89
2020/12/24 03:25:04;;;;;;;3.85;1.30;;;;;;;9.17;70.32;100617.50;4972136;28;20022;-88
2020/12/24 03:27:29;;;;;;;1.92;1.20;;;;;;;9.35;70.38;100632.13;4973187;28;20385;-88
2020/12/24 03:29:55;;;;;;;4.57;1.30;;;;;;;9.22;70.16;100633.75;4973530;28;20558;-89
2020/12/24 03:32:20;;;;;;;1.00;0.95;;;;;;;9.27;69.36;100636.97;5004273;28;20097;-88
2020/12/24 03:34:46;;;;;;;1.17;0.85;;;;;;;9.33;69.53;100639.22;4972999;28;20118;-88
2020/12/24 03:37:12;;;;;;;1.52;1.10;;;;;;;9.24;69.74;100639.75;4973129;28;20536;-88
2020/12/24 03:39:37;;;;;;;5.07;1.17;;;;;;;9.20;69.27;100648.72;4988192;28;20043;-89
2020/12/24 03:42:02;;;;;;;3.20;1.00;;;;;;;9.26;68.68;100651.84;4973320;28;20018;-88
2020/12/24 03:44:28;;;;;;;6.50;1.20;;;;;;;9.17;69.48;100659.41;4973173;28;20081;-88
2020/12/24 03:46:53;;;;;;;1.70;1.17;;;;;;;9.30;69.56;100670.84;4972609;28;20498;-88
2020/12/24 03:49:18;;;;;;;2.40;1.10;;;;;;;9.44;68.20;100663.03;4971641;28;20477;-88
2020/12/24 03:51:43;;;;;;;5.85;1.23;;;;;;;9.20;69.54;100675.78;4971961;28;20393;-88
2020/12/24 03:54:09;;;;;;;5.55;1.30;;;;;;;9.25;69.51;100678.13;4988137;28;20019;-88
2020/12/24 03:56:34;;;;;;;3.10;1.20;;;;;;;9.28;69.54;100684.03;4987891;28;20118;-88
2020/12/24 03:58:59;;;;;;;2.28;0.80;;;;;;;9.30;68.88;100683.94;4971624;28;20066;-89
2020/12/24 04:01:25;;;;;;;5.75;1.30;;;;;;;9.21;68.57;100687.94;4987472;28;20035;-88
2020/12/24 04:03:52;;;;;;;4.18;1.00;;;;;;;9.11;68.72;100694.66;4971067;28;20038;-89
2020/12/24 04:06:17;;;;;;;7.75;1.80;;;;;;;8.91;69.12;100691.38;4971737;28;20445;-88
2020/12/24 04:08:43;;;;;;;5.82;1.33;;;;;;;8.92;68.72;100707.94;4972727;28;20050;-89
2020/12/24 04:11:08;;;;;;;5.32;1.00;;;;;;;9.15;67.78;100709.25;4971958;28;20027;-89
2020/12/24 04:13:33;;;;;;;4.13;1.33;;;;;;;8.99;68.71;100725.00;4972990;28;20065;-88
2020/12/24 04:15:59;;;;;;;4.45;0.93;;;;;;;9.25;66.87;100730.53;4972566;28;20125;-88
2020/12/24 04:18:25;;;;;;;5.03;1.50;;;;;;;8.80;68.06;100730.41;4972361;28;20042;-88
2020/12/24 04:20:50;;;;;;;8.73;1.00;;;;;;;8.56;67.79;100735.22;4972716;28;20027;-89
2020/12/24 04:23:15;;;;;;;8.93;1.70;;;;;;;8.21;69.53;100732.69;4971544;28;20577;-89
2020/12/24 04:25:41;;;;;;;8.85;1.27;;;;;;;8.56;68.12;100753.53;4971622;28;20023;-88
2020/12/24 04:28:06;;;;;;;7.45;1.23;;;;;;;8.68;67.74;100752.03;4972048;28;20035;-88
2020/12/24 04:30:32;;;;;;;10.43;1.27;;;;;;;8.50;68.34;100756.50;4972776;28;20205;-88
2020/12/24 04:32:57;;;;;;;4.80;1.48;;;;;;;8.36;68.57;100756.34;4971846;28;20031;-88
2020/12/24 04:35:22;;;;;;;9.38;1.58;;;;;;;8.32;67.91;100771.38;5007845;28;20077;-89
2020/12/24 04:37:49;;;;;;;9.88;1.67;;;;;;;8.28;68.36;100786.38;4976488;28;20030;-89
2020/12/24 04:40:16;;;;;;;7.78;2.00;;;;;;;7.88;69.09;100793.66;5007693;28;20110;-88
2020/12/24 04:42:42;;;;;;;7.72;1.05;;;;;;;7.95;68.86;100783.72;5007594;28;20462;-88
2020/12/24 04:45:08;;;;;;;5.80;1.35;;;;;;;8.16;68.32;100801.88;4990975;28;20499;-89
2020/12/24 04:47:36;;;;;;;7.57;1.30;;;;;;;8.25;67.41;100802.22;4974861;28;20121;-88
2020/12/24 04:50:02;;;;;;;6.38;0.95;;;;;;;8.02;68.13;100805.19;4976222;28;20033;-88
2020/12/24 04:52:28;;;;;;;6.43;1.33;;;;;;;8.11;67.02;100810.78;4976087;28;20433;-89
2020/12/24 04:54:55;;;;;;;10.95;1.50;;;;;;;7.72;68.97;100818.84;5007405;28;20033;-89
2020/12/24 04:57:22;;;;;;;10.10;1.48;;;;;;;7.41;69.00;100836.03;4976044;28;20034;-89
2020/12/24 04:59:48;;;;;;;9.02;1.50;;;;;;;7.40;67.26;100836.94;5007218;28;20031;-88
2020/12/24 05:02:14;;;;;;;9.55;1.65;;;;;;;7.78;68.40;100860.41;5006748;28;20396;-88
2020/12/24 05:04:40;;;;;;;6.20;1.48;;;;;;;7.68;67.75;100853.91;4976009;28;20031;-89
2020/12/24 05:07:07;;;;;;;11.00;1.48;;;;;;;7.80;67.36;100852.47;4975919;28;20090;-89
2020/12/24 05:09:33;;;;;;;7.50;1.65;;;;;;;7.49;68.29;100854.81;4974641;28;20396;-89
2020/12/24 05:11:58;;;;;;;8.30;1.50;;;;;;;6.96;70.09;100852.94;5006952;28;20027;-88
2020/12/24 05:14:26;;;;;;;3.33;1.33;;;;;;;7.24;68.24;100869.94;4974559;28;20073;-89
2020/12/24 05:17:00;;;;;;;8.02;1.80;;;;;;;7.09;68.32;100859.31;4975344;28;20031;-89
2020/12/24 05:19:28;;;;;;;2.72;0.95;;;;;;;7.29;67.91;100875.81;4975693;28;20062;-88
2020/12/24 05:21:54;;;;;;;8.18;1.58;;;;;;;7.15;67.69;100884.28;5007023;28;20072;-88
2020/12/24 05:24:33;;;;;;;10.00;1.40;;;;;;;6.91;69.17;100886.22;4975723;28;20061;-88
2020/12/24 05:27:20;;;;;;;4.57;1.00;;;;;;;6.84;68.37;100893.50;4975593;28;20119;-89
2020/12/24 05:29:49;;;;;;;5.80;1.10;;;;;;;6.89;68.16;100911.56;4975915;28;20123;-88
2020/12/24 05:32:15;;;;;;;6.45;1.23;;;;;;;6.89;68.35;100902.00;4973970;28;20034;-88
2020/12/24 05:34:41;;;;;;;6.95;1.25;;;;;;;6.90;66.84;100902.81;4975482;28;20034;-89
2020/12/24 05:37:10;;;;;;;9.05;1.10;;;;;;;6.81;68.32;100911.06;4975004;28;20027;-88
2020/12/24 05:39:37;;;;;;;6.43;1.40;;;;;;;6.61;68.17;100915.38;4973793;28;20018;-89
2020/12/24 05:42:03;;;;;;;6.85;1.17;;;;;;;6.54;68.02;100921.78;4973935;28;20058;-89
2020/12/24 05:44:29;;;;;;;9.45;1.15;;;;;;;6.51;68.80;100916.69;4973479;28;20023;-87
2020/12/24 05:46:54;;;;;;;7.97;1.48;;;;;;;6.60;68.73;100937.19;4974882;28;20045;-89
2020/12/24 05:49:21;;;;;;;9.77;1.60;;;;;;;6.49;68.88;100942.84;4974825;28;20026;-89
2020/12/24 05:51:48;;;;;;;6.03;1.05;;;;;;;6.68;67.64;100953.34;4975207;28;20023;-89
2020/12/24 05:54:15;;;;;;;6.32;1.80;;;;;;;6.77;68.87;100965.16;4975285;28;20091;-88
2020/12/24 05:56:42;;;;;;;9.13;1.50;;;;;;;6.56;68.75;100972.16;4974928;28;20532;-88
2020/12/24 05:59:12;;;;;;;4.95;1.20;;;;;;;6.55;68.16;100980.88;4990631;28;20466;-88
2020/12/24 06:01:41;;;;;;;7.78;1.10;;;;;;;6.63;67.76;100994.44;4972976;28;20027;-89
2020/12/24 06:04:08;;;;;;;10.27;1.45;;;;;;;6.53;68.21;101000.97;4974647;28;20023;-88
2020/12/24 06:06:49;;;;;;;5.57;1.30;;;;;;;6.20;69.93;101011.88;4972950;28;20061;-89
2020/12/24 06:09:19;;;;;;;8.48;0.98;;;;;;;6.32;68.98;101011.38;4968967;28;20031;-88
2020/12/24 06:11:50;;;;;;;4.80;1.00;;;;;;;6.42;68.70;101018.81;4973507;28;20065;-89
2020/12/24 06:14:28;;;;;;;8.15;3.38;;;;;;;6.28;69.01;101029.81;4975081;28;20023;-88
2020/12/24 06:17:05;;;;;;;4.53;0.90;;;;;;;6.32;69.27;101028.78;4989166;28;20043;-88
2020/12/24 06:19:35;;;;;;;8.27;1.30;;;;;;;6.09;69.66;101030.53;4979333;28;20094;-88
2020/12/24 06:22:01;;;;;;;11.63;1.50;;;;;;;6.11;68.76;101033.94;4987083;28;20030;-89
2020/12/24 06:24:26;;;;;;;8.63;1.10;;;;;;;6.33;68.21;101038.31;4972808;28;20110;-89
2020/12/24 06:26:56;;;;;;;3.38;0.90;;;;;;;6.00;68.92;101045.69;5005981;28;20123;-88
2020/12/24 06:29:24;;;;;;;8.60;1.10;;;;;;;6.11;68.75;101038.31;5005664;28;20043;-89
2020/12/24 06:31:53;;;;;;;6.30;1.15;;;;;;;5.92;69.68;101048.56;5004861;28;20034;-88
2020/12/24 06:34:21;;;;;;;13.57;1.77;;;;;;;5.77;69.19;101044.78;5003649;28;20054;-88
2020/12/24 06:36:47;;;;;;;11.68;1.25;;;;;;;6.01;69.99;101047.41;4973515;28;20033;-88
2020/12/24 06:39:12;;;;;;;3.95;0.98;;;;;;;6.07;68.88;101042.78;4972554;28;20125;-89
2020/12/24 06:41:40;;;;;;;11.95;1.10;;;;;;;5.94;69.47;101051.94;4975826;28;20361;-89
2020/12/24 06:44:06;;;;;;;6.20;1.25;;;;;;;6.00;69.69;101050.91;4974158;28;20031;-89
2020/12/24 06:46:55;;;;;;;9.90;1.73;;;;;;;6.17;68.21;101058.09;4973377;28;20102;-89
2020/12/24 06:49:31;;;;;;;9.20;1.05;;;;;;;6.03;68.74;101069.03;4973821;28;20027;-88
2020/12/24 06:51:56;;;;;;;6.63;1.13;;;;;;;5.60;70.91;101074.06;4973034;28;20050;-89
2020/12/24 06:54:24;;;;;;;9.13;1.15;;;;;;;5.89;69.62;101075.59;4973521;28;20113;-89
2020/12/24 06:56:50;;;;;;;9.15;1.17;;;;;;;5.81;69.89;101088.06;4972019;28;20077;-89
2020/12/24 06:59:20;;;;;;;5.57;0.80;;;;;;;5.84;69.26;101093.16;4972289;28;20035;-89
2020/12/24 07:02:03;;;;;;;6.28;1.23;;;;;;;6.00;69.16;101090.00;4972099;28;20381;-88
2020/12/24 07:04:36;;;;;;;4.43;1.00;;;;;;;5.99;68.83;101090.94;4968116;28;20022;-89
2020/12/24 07:07:02;;;;;;;8.25;1.30;;;;;;;5.64;70.48;101095.66;4971077;28;20109;-89
2020/12/24 07:09:27;;;;;;;8.13;1.58;;;;;;;6.05;69.30;101098.50;4966495;28;20027;-89
2020/12/24 07:11:53;;;;;;;6.10;1.00;;;;;;;5.90;69.00;101097.28;4964750;28;20031;-89
2020/12/24 07:14:38;;;;;;;17.02;1.52;;;;;;;5.66;70.34;101106.88;4972953;28;20023;-89
2020/12/24 07:17:11;;;;;;;5.55;1.33;;;;;;;5.79;70.39;101110.72;4963516;28;20484;-88
2020/12/24 07:19:42;;;;;;;6.72;0.95;;;;;;;5.60;70.20;101120.97;4983051;28;20035;-88
2020/12/24 07:22:18;;;;;;;9.57;1.45;;;;;;;5.78;69.57;101119.44;4988219;28;20027;-88
2020/12/24 07:24:55;;;;;;;11.35;2.05;;;;;;;5.87;69.39;101145.19;4973341;28;20026;-88
2020/12/24 07:27:21;;;;;;;12.50;1.42;;;;;;;5.82;69.80;101144.47;4972799;28;20054;-88
2020/12/24 07:29:47;;;;;;;10.50;1.10;;;;;;;5.92;69.02;101145.88;4973043;28;20031;-89
2020/12/24 07:32:13;;;;;;;3.60;0.88;;;;;;;5.84;69.54;101153.09;4971522;28;20521;-88
2020/12/24 07:34:38;;;;;;;12.15;1.42;;;;;;;5.96;68.75;101146.63;4972744;28;20113;-89
2020/12/24 07:37:05;;;;;;;8.15;1.60;;;;;;;5.89;68.53;101150.34;4971708;28;20504;-88
2020/12/24 07:39:31;;;;;;;3.50;0.80;;;;;;;5.79;69.21;101159.41;4971697;28;20027;-89
2020/12/24 07:41:56;;;;;;;4.28;0.73;;;;;;;5.85;68.93;101165.22;4971208;28;20612;-89
2020/12/24 07:44:22;;;;;;;9.77;1.63;;;;;;;5.72;68.83;101164.81;4971676;28;20449;-89
2020/12/24 07:46:51;;;;;;;8.18;1.45;;;;;;;5.63;69.50;101178.19;4971653;28;20035;-89
2020/12/24 07:49:18;;;;;;;5.75;1.25;;;;;;;5.74;68.95;101181.22;4971614;28;20034;-88
2020/12/24 07:51:52;;;;;;;6.35;1.70;;;;;;;5.67;69.68;101194.56;4971466;28;20077;-89
2020/12/24 07:54:18;;;;;;;7.13;1.00;;;;;;;5.63;69.55;101187.72;4972745;28;20101;-89
2020/12/24 07:56:45;;;;;;;4.50;0.80;;;;;;;5.73;69.34;101189.13;4970641;28;20461;-88
2020/12/24 07:59:11;;;;;;;5.95;0.85;;;;;;;5.71;69.10;101188.34;4974249;28;20027;-88
2020/12/24 08:01:36;;;;;;;7.70;1.15;;;;;;;5.73;69.80;101203.00;4971966;28;20023;-88
2020/12/24 08:04:04;;;;;;;4.32;1.10;;;;;;;5.54;70.50;101205.38;4972765;28;20026;-88
2020/12/24 08:06:31;;;;;;;9.07;0.88;;;;;;;5.85;69.38;101214.75;4970768;28;20062;-88
2020/12/24 08:09:16;;;;;;;9.05;1.00;;;;;;;5.78;69.08;101218.47;4971245;28;20027;-88
2020/12/24 08:11:50;;;;;;;5.03;1.00;;;;;;;5.87;69.06;101230.34;4972787;28;20426;-88
2020/12/24 08:14:20;;;;;;;8.40;0.90;;;;;;;5.88;69.11;101229.41;4972232;28;20031;-88
2020/12/24 08:16:46;;;;;;;7.10;0.95;;;;;;;5.87;68.07;101246.81;4970576;28;20129;-88
2020/12/24 08:19:25;;;;;;;6.20;1.20;;;;;;;5.80;69.35;101244.47;4973823;28;20034;-88
2020/12/24 08:21:59;;;;;;;4.05;0.95;;;;;;;5.85;68.71;101248.63;4971796;28;20031;-89
2020/12/24 08:24:26;;;;;;;7.07;1.27;;;;;;;5.86;68.57;101252.91;4972789;28;20025;-88
2020/12/24 08:26:52;;;;;;;4.70;0.95;;;;;;;5.78;69.55;101257.56;5003871;28;20515;-89
2020/12/24 08:29:18;;;;;;;7.82;0.98;;;;;;;5.74;69.10;101253.34;4971890;28;20034;-88
2020/12/24 08:31:45;;;;;;;5.93;0.80;;;;;;;5.83;69.91;101260.88;4970058;28;20389;-88
2020/12/24 08:34:11;;;;;;;4.20;0.70;;;;;;;5.91;69.03;101264.06;4971442;28;20447;-88
2020/12/24 08:36:46;;;;;;;11.35;1.38;;;;;;;5.82;69.29;101266.97;4970675;28;20130;-89
2020/12/24 08:39:13;;;;;;;4.30;0.90;;;;;;;5.88;67.98;101268.50;4971028;28;20213;-88
2020/12/24 08:41:41;;;;;;;9.98;1.40;;;;;;;5.82;68.14;101280.00;4966492;28;20027;-89
2020/12/24 08:44:07;;;;;;;7.85;1.00;;;;;;;5.93;68.91;101280.50;4970773;28;20157;-88
2020/12/24 08:46:32;;;;;;;9.65;1.17;;;;;;;5.86;68.38;101289.41;4972602;28;20104;-88
2020/12/24 08:49:17;;;;;;;16.08;3.35;;;;;;;5.87;69.25;101293.75;4971892;28;20444;-88
2020/12/24 08:51:43;;;;;;;4.95;1.30;;;;;;;6.01;68.81;101292.44;4970861;28;20027;-89
2020/12/24 08:54:08;;;;;;;11.85;1.85;;;;;;;6.21;67.57;101289.97;4972640;28;20101;-88
2020/12/24 08:56:36;;;;;;;7.97;1.42;;;;;;;6.26;67.57;101298.50;4972134;28;20470;-89
2020/12/24 08:59:07;;;;;;;7.97;1.50;;;;;;;6.32;67.21;101306.09;4972339;28;20062;-89
2020/12/24 09:01:40;;;;;;;7.63;2.43;;;;;;;6.22;67.33;101311.69;4971296;28;20393;-89
2020/12/24 09:04:14;;;;;;;6.78;1.50;;;;;;;6.29;67.18;101314.03;4971802;28;20026;-89
2020/12/24 09:06:39;;;;;;;9.70;1.70;;;;;;;6.34;66.82;101317.34;4971979;28;20485;-90
2020/12/24 09:09:05;;;;;;;3.78;1.40;;;;;;;6.35;66.78;101321.63;4971525;28;20031;-89
2020/12/24 09:11:31;;;;;;;6.82;1.20;;;;;;;6.44;66.49;101333.50;4972231;28;20022;-89
2020/12/24 09:14:07;;;;;;;5.80;1.58;;;;;;;6.48;66.28;101348.16;4971305;28;20087;-90
2020/12/24 09:16:34;;;;;;;10.32;2.13;;;;;;;6.59;67.22;101346.91;4970943;28;20381;-87
2020/12/24 09:19:07;;;;;;;7.43;2.17;;;;;;;6.57;68.23;101348.72;4970289;28;20033;-91
2020/12/24 09:21:33;;;;;;;8.45;2.47;;;;;;;6.68;67.50;101351.81;4973598;28;20026;-90
2020/12/24 09:24:10;;;;;;;9.70;2.60;;;;;;;6.82;66.07;101340.84;4974535;28;20038;-90
2020/12/24 09:26:45;;;;;;;12.43;3.35;;;;;;;6.99;66.44;101356.75;4973031;28;20662;-90
2020/12/24 09:29:11;;;;;;;10.77;2.90;;;;;;;6.99;65.64;101345.41;4975097;28;20027;-91
2020/12/24 09:31:36;;;;;;;5.03;2.83;;;;;;;7.22;64.61;101348.00;4974750;28;20033;-90
2020/12/24 09:34:02;;;;;;;6.90;2.83;;;;;;;7.43;65.50;101350.69;4982814;28;20118;-91
2020/12/24 09:36:27;;;;;;;10.75;3.13;;;;;;;7.44;66.84;101357.59;5006082;28;20412;-91
2020/12/24 09:38:52;;;;;;;8.90;2.63;;;;;;;7.63;65.20;101370.81;4975677;28;20027;-91
2020/12/24 09:41:18;;;;;;;4.63;1.63;;;;;;;7.86;64.00;101373.34;4973227;28;20023;-91
2020/12/24 09:43:43;;;;;;;6.88;1.58;;;;;;;7.93;64.20;101369.53;4973617;28;20018;-91
2020/12/24 09:46:08;;;;;;;6.07;1.20;;;;;;;8.18;63.26;101376.38;4974984;28;20289;-92
2020/12/24 09:48:33;;;;;;;3.80;1.40;;;;;;;8.05;63.19;101381.25;4973729;28;20066;-92
2020/12/24 09:50:59;;;;;;;3.03;1.00;;;;;;;8.30;62.27;101375.00;4973459;28;20035;-92
2020/12/24 09:53:25;;;;;;;5.00;2.45;;;;;;;8.44;62.57;101371.81;4975037;28;20027;-91
2020/12/24 09:55:50;;;;;;;6.25;1.55;;;;;;;8.60;63.48;101372.84;4989397;28;20481;-92
2020/12/24 09:58:15;;;;;;;8.77;1.40;;;;;;;9.02;61.39;101374.44;4972700;28;20045;-92
2020/12/24 10:00:41;;;;;;;4.25;1.60;;;;;;;9.51;60.99;101384.41;4973805;28;20026;-92
2020/12/24 10:03:06;;;;;;;6.47;2.38;;;;;;;9.43;58.52;101397.84;4973814;28;20023;-90
2020/12/24 10:05:31;;;;;;;8.05;1.17;;;;;;;9.45;60.78;101388.16;4973505;28;20042;-91
2020/12/24 10:07:58;;;;;;;7.45;1.50;;;;;;;9.33;59.34;101404.47;4973307;28;20420;-92
2020/12/24 10:10:23;;;;;;;7.75;1.10;;;;;;;9.43;59.79;101408.34;4973412;28;20031;-90
2020/12/24 10:12:49;;;;;;;10.18;1.67;;;;;;;9.07;59.91;101413.53;4971854;28;20120;-89
2020/12/24 10:15:14;;;;;;;6.00;1.50;;;;;;;9.17;60.91;101416.59;4972750;28;20046;-89
2020/12/24 10:17:40;;;;;;;5.05;1.40;;;;;;;9.18;60.56;101420.88;4973356;28;20496;-87
2020/12/24 10:20:05;;;;;;;6.68;1.40;;;;;;;9.92;58.54;101418.25;4973990;28;20034;-89
2020/12/24 10:22:30;;;;;;;7.32;1.52;;;;;;;11.13;57.58;101423.50;4972955;28;20023;-86
2020/12/24 10:24:56;;;;;;;4.55;1.20;;;;;;;10.62;55.36;101421.75;4973108;28;20027;-90
2020/12/24 10:27:21;;;;;;;6.75;1.40;;;;;;;11.22;55.69;101421.22;4987581;28;20535;-88
2020/12/24 10:29:47;;;;;;;4.68;1.08;;;;;;;12.23;53.17;101424.34;4972794;28;20046;-88
2020/12/24 10:32:12;;;;;;;3.22;0.90;;;;;;;12.77;51.00;101423.78;4959982;28;20410;-88
2020/12/24 10:34:38;;;;;;;3.83;1.20;;;;;;;11.45;52.07;101424.34;4987835;28;20053;-92
2020/12/24 10:37:03;;;;;;;5.55;0.80;;;;;;;10.81;56.19;101433.94;4971939;28;20114;-87
2020/12/24 10:39:29;;;;;;;4.00;0.73;;;;;;;10.86;55.89;101426.66;4972857;28;20396;-89
2020/12/24 10:41:54;;;;;;;4.05;0.98;;;;;;;10.76;56.03;101415.78;4972989;28;20033;-88
2020/12/24 10:44:20;;;;;;;2.92;1.30;;;;;;;10.60;56.13;101420.97;4972452;28;20029;-89
2020/12/24 10:46:46;;;;;;;2.53;0.85;;;;;;;10.03;58.34;101436.09;4972924;28;20047;-90
2020/12/24 10:49:11;;;;;;;6.88;1.15;;;;;;;10.69;57.51;101431.00;4972668;28;20555;-90
2020/12/24 10:51:37;;;;;;;7.38;1.45;;;;;;;11.44;53.57;101431.41;4972320;28;20489;-89
2020/12/24 10:54:03;;;;;;;5.15;1.23;;;;;;;11.13;56.10;101439.25;4972991;28;20469;-88
2020/12/24 10:56:28;;;;;;;5.65;1.23;;;;;;;11.84;55.93;101426.53;4973841;28;20072;-87
2020/12/24 10:58:54;;;;;;;3.95;1.08;;;;;;;11.87;52.13;101429.00;4973122;28;20034;-88
2020/12/24 11:01:19;;;;;;;3.38;1.00;;;;;;;12.95;52.36;101430.53;4972663;28;20030;-89
2020/12/24 11:03:45;;;;;;;6.68;1.02;;;;;;;13.23;50.78;101428.81;4973842;28;20027;-89
2020/12/24 11:06:19;;;;;;;1.58;0.52;;;;;;;13.74;50.47;101428.28;4972155;28;20027;-86
2020/12/24 11:08:44;;;;;;;1.33;0.52;;;;;;;14.27;46.99;101434.44;4973732;28;20497;-88
2020/12/24 11:11:10;;;;;;;3.40;0.80;;;;;;;14.18;49.55;101433.28;4973585;28;20031;-89
2020/12/24 11:13:37;;;;;;;3.00;0.68;;;;;;;13.51;48.82;101429.75;4972613;28;20023;-89
2020/12/24 11:16:02;;;;;;;3.97;1.00;;;;;;;13.69;49.81;101424.13;4972713;28;20034;-89
2020/12/24 11:18:28;;;;;;;3.70;0.80;;;;;;;13.52;49.98;101434.09;4972605;28;20396;-88
2020/12/24 11:20:56;;;;;;;4.07;1.35;;;;;;;13.62;49.21;101437.81;4973215;28;20106;-89
2020/12/24 11:23:22;;;;;;;4.43;0.80;;;;;;;13.77;48.05;101438.66;4973368;28;20058;-89
2020/12/24 11:25:47;;;;;;;2.38;0.52;;;;;;;14.32;48.10;101442.06;4971073;28;20042;-89
2020/12/24 11:28:13;;;;;;;4.78;0.88;;;;;;;13.77;48.59;101436.84;4972486;28;20027;-90
2020/12/24 11:30:38;;;;;;;2.55;0.68;;;;;;;14.48;48.77;101437.44;4973199;28;20069;-89